Главная страница
METAR-TAF:

METAR-TAF

Аэропорты :

Эстерсунд-Frösön, Швеция

широта: 63-11N, долгота: 014-30E, высота над уровнем моря: 376 м

Текущие метеонаблюдения

Эта сводка был подготовлена 23 минут назад, в 14:20 UTC
Ветер 12 Узел от юго-восточный
Температура -5°C
Влажность 93%
Давление 1019 hPa
Видимость 10 км и более
Сплошная облачность на высоте 900 фута

METAR: ESNZ 191420Z 13012KT 9999 OVC009 M05/M06 Q1019

Время: 15:43 (14:43 UTC)

Прогноз

Эта сводка был подготовлена 13 минут назад, в 14:30 UTC
Прогноз действительный с 19-го 15 UTC до 19-го 23 UTC
Ветер 12 Узел от юго-восточный
Видимость 10 км и более
небольшая облачность на высоте 2000 фута
Рассеянная облачность на высоте 3000 фута
Вероятность 40%
С 19-го 15 UTC до 19-го 23 UTC
Видимость: 2000 м
Рассеянная облачность на высоте 800 фута
снег

TAF: ESNZ 191430Z 1915/1923 14012KT 9999 FEW020 BKN030 PROB40 1915/1923 2000 SN BKN008

Метеонаблюдения и прогнозы для более 4000 аэропортов (сводки METAR и TAF).

Имеющиеся станции представлены на карте желтыми и красными точками.

Чтобы увидеть название станции, наведите на нее мышь.

Затем щелкните, чтобы увидеть метеонаблюдения и метеопрогнозы.

Управление картой: чтобы увеличить масштаб, щелкните зеленые кнопки с черным крестиком; чтобы уменьшить масштаб, щелкните зеленую кнопку с тире; для просмотра соседних карт щелкайте зеленые стрелки.


METAR-TAF: